メインページ
METAR-TAF:

METAR-TAF

空港 :

エルモシージョ, メキシコ

緯度: 29-04N, 経度: 110-57W, 海抜: 211m

現時点の気象観測

当レポートは1時間19分前の09:40(UTC)に作成
南東の風 3kt
気温 25°C
湿度 74%
気圧 1011 hPa
視程: 16.1km
晴天

METAR: MMHO 220940Z 13003KT 10SM SKC 25/20 A2984 RMK SC OVR MT 1ST QUAD

時間: 03:59 (10:59 UTC)

予報

当レポートは7時間43分前の03:16(UTC)に作成
予報は22日の 06時(UTC)から 23日の 06時(UTC)まで有効
西の風 5kt
視程: 10km
晴天
22日の 1800時(UTC)から
の風 10kt
視程: 10km
高度3000ftの雲は散在している
高度10000ftの千切れ雲あり
23日の 0500時(UTC)から
南西の風 5kt
視程: 10km
高度4000ftの雲は散在している

TAF: MMHO 220316Z 2206/2306 27005KT P6SM SKC FM221800 18010KT P6SM SCT030 BKN100 FM230500 22005KT P6SM SCT040

4,000以上の空港の気象観測と天気予報(METAR報とTAF報)

利用可能な観測所は地図上に黄色い丸と赤い丸で示す。

丸の上にカーソルを重ねると観測所名を参照できる。

次にクリックすると気象観測と天気予報を参照できる。

マップの切り替え:黒色「×」印の緑ボタンをクリックして拡大、「-」印の緑ボタンをクリックして縮小、緑色の三角印をクリックして隣りの地図に切り替え


METAR-TAF: